Friday, September 19, 2014, 9:53 PM EDT

KDOV, Dover Air Force Base

Location: Dover, DE, United States Lat: 39.133
Local Time: 9:53 PM EDT ( 1:53 GMT) Lon: -75.467
Time Zone: US/Eastern Elev: 29 ft

Show me the last for .
Show Decoded

2014-09-19 20:58 METAR KDOV 200058Z AUTO 06010KT 10SM SCT019 BKN027 BKN037 OVC047 18/16 A3030 RMK
                 AO2 CIG 021 RWY19 SLP264 T01820155 =
2014-09-19 20:43 METAR KDOV 200043Z AUTO 06010KT 10SM SCT019 BKN026 OVC038 18/15 A3030 RMK AO2
                 CIG 019V028 CIG 021 RWY19 =
2014-09-19 20:38 METAR KDOV 200038Z AUTO 06011KT 10SM BKN019 BKN026 OVC038 18/16 A3029 RMK AO2
                 CIG 019V028 =
2014-09-19 19:58 METAR KDOV 192358Z AUTO 07010KT 10SM BKN022 OVC027 19/15 A3028 =
2014-09-19 19:13 METAR KDOV 192313Z AUTO 08010KT 10SM BKN025 BKN031 19/15 A3028 RMK AO2 CIG
                 023V030 =
2014-09-19 19:08 METAR KDOV 192308Z AUTO 08012KT 10SM SCT024 BKN030 19/15 A3027 RMK AO2 =
2014-09-19 19:03 METAR KDOV 192303Z AUTO 08010KT 10SM BKN025 19/15 A3027 RMK AO2 BKN V SCT =
2014-09-19 18:58 METAR KDOV 192258Z AUTO 07012KT 10SM SCT025 19/15 A3027 RMK AO2 SLP254 T01870147
                 =
2014-09-19 17:58 METAR KDOV 192158Z AUTO 08012KT 10SM FEW028 20/15 A3028 RMK AO2 SLP257 T01980146
                 =
2014-09-19 16:58 METAR KDOV 192058Z AUTO 09014KT 10SM FEW030 21/14 A3027 =
2014-09-19 15:58 METAR KDOV 191958Z AUTO 08014KT 10SM CLR 22/15 A3027 RMK AO2 SLP254 T02220147 =
2014-09-19 14:58 METAR KDOV 191858Z AUTO 07015G18KT 10SM CLR 23/15 A3026 RMK AO2 SLP250 T02270146
                 =
2014-09-19 13:58 METAR KDOV 191758Z AUTO 08014G20KT 10SM CLR 23/15 A3026 RMK AO2 SLP250 T02270148
                 10231 20149 51006 =
2014-09-19 12:58 METAR KDOV 191658Z AUTO 08014G19KT 10SM FEW025 22/15 A3026 =
2014-09-19 12:43 METAR KDOV 191643Z AUTO 08011KT 10SM SCT025 SCT070 21/15 A3026 RMK AO2 =
2014-09-19 11:58 METAR KDOV 191558Z AUTO 06011KT 10SM BKN022 OVC027 21/16 A3026 RMK AO2 BKN V OVC
                 SLP250 T02120158 =
2014-09-19 11:28 METAR KDOV 191528Z AUTO 05012G19KT 10SM BKN020 21/16 A3025 RMK AO2 BKN V SCT =
2014-09-19 10:58 METAR KDOV 191458Z AUTO 06011KT 10SM FEW019 21/16 A3024 RMK AO2 SLP243 T02060155
                 52013 =
2014-09-19 09:58 METAR KDOV 191358Z AUTO 03012KT 10SM CLR 19/14 A3024 RMK AO2 SLP243 T01860144 =
2014-09-19 08:58 METAR KDOV 191258Z AUTO 02011KT 10SM CLR 16/13 A3023 RMK AO2 SLP240 T01630134 =
2014-09-19 07:58 METAR KDOV 191158Z AUTO 01009KT 10SM CLR 15/13 A3021 =
2014-09-19 06:58 METAR KDOV 191058Z AUTO 02007KT 10SM CLR 14/12 A3018 =
2014-09-19 05:58 METAR KDOV 190958Z AUTO 02008KT 10SM CLR 13/12 A3016 =
2014-09-19 04:58 METAR KDOV 190858Z AUTO 01009KT 360V080 10SM CLR 13/13 A3015 RMK AO2 SLP213
                 T01290129 52019 =
2014-09-19 03:58 METAR KDOV 190758Z AUTO 33007KT 10SM CLR 13/13 A3012 RMK AO2 SLP203 T01330131 =
2014-09-19 02:58 METAR KDOV 190658Z AUTO 32007KT 10SM CLR 13/12 A3010 RMK AO2 SLP196 T01290120 =
2014-09-19 01:58 METAR KDOV 190558Z AUTO 28003KT 10SM CLR 15/13 A3009 RMK AO2 SLP193 T01510132
                 10190 20147 51005 =
2014-09-19 00:58 METAR KDOV 190458Z AUTO 21001KT 10SM CLR 16/14 A3008 =
2014-09-18 23:58 METAR KDOV 190358Z AUTO 24001KT 10SM BKN095 17/14 A3008 RMK AO2 SLP189 T01700139
                 =
2014-09-18 22:58 METAR KDOV 190258Z AUTO 22004KT 10SM FEW080 17/14 A3007 =
2014-09-18 21:58 METAR KDOV 190158Z AUTO 26002KT 10SM OVC080 18/14 A3006 RMK AO2 SLP182 T01840140
                 =

Support USWX by starting your Amazon purchase here.